Time;durP1;ratioP1;P1;durP2;ratioP2;P2;SDS_P1;SDS_P2;PMS_P1;PMS_P2;Temp;Humidity;BMP_temperature;BMP_pressure;BME280_temperature;BME280_humidity;BME280_pressure;Samples;Min_cycle;Max_cycle;Signal;HPM_P1;HPM_P2
2022/12/19 00:01:02;;;;;;;;;27.50;23.00;;;;;6.80;61.91;101391.69;5061577;28;45362;-49
2022/12/19 00:03:27;;;;;;;;;24.75;23.00;;;;;6.83;62.07;101395.22;5061483;28;46497;-45
2022/12/19 00:05:52;;;;;;;;;26.75;22.00;;;;;6.83;61.92;101392.59;5061237;27;45327;-45
2022/12/19 00:08:18;;;;;;;;;27.50;24.00;;;;;6.86;62.08;101402.22;5077298;28;45441;-46
2022/12/19 00:10:52;;;;;;;;;22.50;21.00;;;;;6.88;62.00;101391.75;5061441;28;45330;-48
2022/12/19 00:13:17;;;;;;;;;22.50;18.00;;;;;6.89;62.17;101388.28;5061457;28;45497;-45
2022/12/19 00:15:43;;;;;;;;;21.50;17.50;;;;;6.93;62.31;101401.44;5061026;28;45407;-48
2022/12/19 00:18:08;;;;;;;;;25.00;21.00;;;;;6.98;62.11;101401.44;5060120;28;45444;-49
2022/12/19 00:20:33;;;;;;;;;23.00;22.75;;;;;7.03;61.99;101398.91;5061183;28;45315;-47
2022/12/19 00:22:59;;;;;;;;;27.00;23.50;;;;;7.06;62.09;101397.19;5061095;28;46200;-46
2022/12/19 00:25:24;;;;;;;;;23.75;20.50;;;;;7.08;62.05;101387.66;5050415;28;45311;-45
2022/12/19 00:27:49;;;;;;;;;27.50;24.50;;;;;7.12;61.98;101397.28;5061185;28;45921;-47
2022/12/19 00:30:15;;;;;;;;;26.25;23.75;;;;;7.16;61.97;101398.19;5060865;28;45437;-47
2022/12/19 00:32:41;;;;;;;;;23.75;22.00;;;;;7.20;62.21;101404.31;5060866;28;45913;-45
2022/12/19 00:35:06;;;;;;;;;26.00;20.00;;;;;7.22;62.20;101390.41;5060687;28;45415;-46
2022/12/19 00:37:31;;;;;;;;;21.75;20.50;;;;;7.24;62.00;101393.03;5061213;28;45299;-45
2022/12/19 00:39:57;;;;;;;;;24.75;22.25;;;;;7.26;62.09;101391.31;5060875;28;45533;-47
2022/12/19 00:42:22;;;;;;;;;30.00;23.25;;;;;7.30;62.19;101388.72;5060823;28;45269;-45
2022/12/19 00:44:47;;;;;;;;;23.00;21.75;;;;;7.26;62.17;101378.25;5060337;28;45224;-45
2022/12/19 00:47:13;;;;;;;;;24.25;19.50;;;;;7.35;62.06;101383.56;5060614;28;45272;-46
2022/12/19 00:49:38;;;;;;;;;25.50;22.00;;;;;7.36;62.04;101387.03;5060696;28;45494;-44
2022/12/19 00:52:03;;;;;;;;;20.50;18.25;;;;;7.40;62.06;101381.00;5060751;28;45267;-49
2022/12/19 00:54:29;;;;;;;;;24.25;22.00;;;;;7.38;61.96;101372.25;5060610;28;45220;-45
2022/12/19 00:56:54;;;;;;;;;20.50;18.00;;;;;7.41;62.16;101375.75;5076502;28;45410;-48
2022/12/19 00:59:19;;;;;;;;;19.00;18.00;;;;;7.43;61.92;101381.00;5060189;28;45497;-45
2022/12/19 01:01:45;;;;;;;;;23.00;17.00;;;;;7.41;61.93;101375.75;5076246;28;47217;-47
2022/12/19 01:04:15;;;;;;;;;18.75;17.75;;;;;7.45;61.95;101372.31;5060331;28;45397;-47
2022/12/19 01:06:40;;;;;;;;;19.25;19.00;;;;;7.45;62.00;101367.06;5060801;28;45235;-46
2022/12/19 01:09:07;;;;;;;;;23.75;19.00;;;;;7.46;62.00;101362.75;5060293;28;45436;-45
2022/12/19 01:14:16;;;;;;;;;24.50;19.75;;;;;7.48;62.62;101366.22;5060182;28;45294;-45
2022/12/19 01:16:42;;;;;;;;;18.00;17.25;;;;;7.48;61.98;101367.13;5060473;28;45238;-45
2022/12/19 01:19:07;;;;;;;;;21.25;20.75;;;;;7.49;61.95;101366.22;5075889;28;45189;-44
2022/12/19 01:21:35;;;;;;;;;22.25;18.75;;;;;7.49;62.13;101375.81;5060196;28;47258;-44
2022/12/19 01:24:02;;;;;;;;;21.75;17.00;;;;;7.51;62.33;101365.38;5059974;28;45739;-45
2022/12/19 01:26:28;;;;;;;;;16.75;16.75;;;;;7.52;62.08;101362.78;5060142;28;45373;-46
2022/12/19 01:28:53;;;;;;;;;22.25;20.25;;;;;7.54;62.05;101368.03;5059816;28;45308;-45
2022/12/19 01:31:18;;;;;;;;;21.00;21.00;;;;;7.54;62.17;101360.19;5060135;28;45318;-44
2022/12/19 01:33:43;;;;;;;;;22.25;19.00;;;;;7.54;62.17;101365.41;5060013;28;45351;-47
2022/12/19 01:36:09;;;;;;;;;24.50;21.75;;;;;7.55;62.35;101370.66;5060223;28;45235;-48
2022/12/19 01:38:36;;;;;;;;;19.50;19.00;;;;;7.55;62.20;101367.16;5060047;28;45235;-47
2022/12/19 01:41:02;;;;;;;;;17.75;16.50;;;;;7.52;62.46;101373.25;5059784;28;46163;-45
2022/12/19 01:43:51;;;;;;;;;21.75;17.00;;;;;7.57;62.21;101362.81;5059454;28;45282;-46
2022/12/19 01:46:23;;;;;;;;;14.75;14.75;;;;;7.59;62.51;101361.09;5059949;28;45255;-48
2022/12/19 01:48:49;;;;;;;;;21.00;19.75;;;;;7.59;62.43;101354.09;5075669;28;45401;-46
2022/12/19 01:51:21;;;;;;;;;19.50;17.00;;;;;7.60;62.53;101368.09;5075073;28;48128;-47
2022/12/19 01:53:50;;;;;;;;;20.75;19.25;;;;;7.58;62.52;101367.19;5058778;28;45404;-48
2022/12/19 01:56:21;;;;;;;;;15.75;13.00;;;;;7.60;62.79;101362.84;5058208;28;45314;-48
2022/12/19 01:58:48;;;;;;;;;19.00;17.25;;;;;7.63;62.35;101352.41;5059937;28;45320;-44
2022/12/19 02:01:16;;;;;;;;;22.00;17.50;;;;;7.63;62.37;101349.78;5062244;28;45250;-47
2022/12/19 02:03:43;;;;;;;;;21.25;19.25;;;;;7.63;62.65;101341.94;5062304;28;45320;-46
2022/12/19 02:06:09;;;;;;;;;18.50;16.25;;;;;7.67;62.54;101343.69;5062265;28;45261;-47
2022/12/19 02:08:36;;;;;;;;;19.25;18.25;;;;;7.69;62.48;101344.59;5061354;28;45252;-47
2022/12/19 02:11:01;;;;;;;;;20.25;18.50;;;;;7.67;62.44;101348.94;5062032;28;46173;-45
2022/12/19 02:13:26;;;;;;;;;23.50;19.75;;;;;7.71;62.50;101352.44;5062120;28;45197;-45
2022/12/19 02:16:26;;;;;;;;;18.00;15.00;;;;;7.78;62.41;101357.72;5062280;28;45154;-45
2022/12/19 02:19:10;;;;;;;;;18.75;16.25;;;;;7.79;62.19;101356.88;5062010;28;45313;-46
2022/12/19 02:22:08;;;;;;;;;17.25;15.00;;;;;7.80;62.34;101368.25;5077724;28;47245;-45
2022/12/19 02:24:59;;;;;;;;;19.25;17.75;;;;;7.83;62.42;101356.91;5033539;28;45396;-45
2022/12/19 02:27:44;;;;;;;;;18.00;14.25;;;;;7.80;62.68;101352.53;5060125;28;45437;-46
2022/12/19 02:30:14;;;;;;;;;17.25;16.25;;;;;7.85;62.47;101347.31;5077268;28;45395;-45
2022/12/19 02:32:48;;;;;;;;;18.00;16.25;;;;;7.89;62.38;101349.09;5061984;28;45174;-47
2022/12/19 02:35:25;;;;;;;;;25.00;21.50;;;;;7.90;62.60;101345.59;5061546;28;45295;-45
2022/12/19 02:38:14;;;;;;;;;18.25;17.00;;;;;7.91;62.47;101344.75;5061976;28;45445;-47
2022/12/19 02:40:47;;;;;;;;;16.75;14.25;;;;;7.93;62.24;101349.13;5061706;28;45505;-44
2022/12/19 02:43:14;;;;;;;;;17.50;15.50;;;;;7.95;62.43;101346.53;5076938;28;47131;-48
2022/12/19 02:45:41;;;;;;;;;18.00;15.00;;;;;7.94;62.49;101356.09;5061498;28;45459;-45
2022/12/19 02:48:08;;;;;;;;;18.00;14.75;;;;;8.00;62.59;101360.53;5077286;28;45364;-45
2022/12/19 02:50:38;;;;;;;;;16.25;14.50;;;;;8.01;62.41;101359.63;5061694;28;45299;-46
2022/12/19 02:53:04;;;;;;;;;16.75;14.75;;;;;8.04;62.35;101362.28;5036564;28;1153816;-49
2022/12/19 02:55:37;;;;;;;;;19.75;17.25;;;;;8.04;62.34;101351.81;5062619;28;45506;-45
2022/12/19 02:58:05;;;;;;;;;17.25;13.50;;;;;8.06;62.90;101350.09;5062504;28;45259;-46
2022/12/19 03:00:38;;;;;;;;;16.25;13.25;;;;;8.07;62.28;101343.97;5062170;28;45382;-47
2022/12/19 03:03:30;;;;;;;;;16.00;13.50;;;;;8.11;62.39;101347.47;5062256;28;45193;-45
2022/12/19 03:06:23;;;;;;;;;15.25;11.50;;;;;8.10;62.40;101346.63;5062201;28;45238;-46
2022/12/19 03:09:01;;;;;;;;;14.75;13.50;;;;;8.11;62.48;101348.38;5062157;28;45599;-46
2022/12/19 03:11:34;;;;;;;;;13.50;12.75;;;;;8.06;62.69;101339.63;5061999;28;45257;-45
2022/12/19 03:14:05;;;;;;;;;16.00;15.75;;;;;8.09;62.52;101341.38;5061788;28;45328;-45
2022/12/19 03:16:33;;;;;;;;;17.00;14.00;;;;;8.08;62.49;101337.88;5062385;28;45231;-48
2022/12/19 03:18:59;;;;;;;;;14.75;14.75;;;;;8.13;62.59;101341.38;5062143;28;45327;-46
2022/12/19 03:21:35;;;;;;;;;17.75;14.50;;;;;8.17;62.55;101330.94;5062034;28;45430;-48
2022/12/19 03:24:02;;;;;;;;;14.75;12.25;;;;;8.19;62.43;101348.41;5061772;28;45548;-49
2022/12/19 03:26:33;;;;;;;;;14.75;13.50;;;;;8.18;62.73;101338.78;5062164;28;45477;-49
2022/12/19 03:29:07;;;;;;;;;14.25;13.00;;;;;8.21;62.42;101343.19;5061827;28;45288;-46
2022/12/19 03:31:34;;;;;;;;;12.75;12.75;;;;;8.20;62.50;101342.31;5061876;28;45310;-46
2022/12/19 03:34:05;;;;;;;;;14.75;14.75;;;;;8.22;62.40;101337.06;5061715;28;45263;-48
2022/12/19 03:36:36;;;;;;;;;18.50;15.25;;;;;8.25;62.57;101345.81;5061896;28;45378;-48
2022/12/19 03:39:04;;;;;;;;;13.75;13.75;;;;;8.25;62.49;101334.47;5061937;28;45280;-46
2022/12/19 03:44:17;;;;;;;;;15.00;13.00;;;;;8.27;62.76;101335.34;5061383;28;45505;-49
2022/12/19 03:46:52;;;;;;;;;18.00;14.25;;;;;8.26;62.59;101334.50;5061531;28;45316;-49
2022/12/19 03:49:18;;;;;;;;;14.75;14.00;;;;;8.28;62.43;101324.03;5076734;28;45282;-45
2022/12/19 03:52:09;;;;;;;;;14.75;12.00;;;;;8.32;62.70;101324.91;5061229;28;45323;-47
2022/12/19 03:54:44;;;;;;;;;13.25;12.25;;;;;8.34;62.82;101329.28;5077098;28;46402;-47
2022/12/19 03:57:26;;;;;;;;;6.00;4.25;;;;;8.35;62.47;101336.28;5061584;28;45414;-45
2022/12/19 04:00:03;;;;;;;;;15.00;12.50;;;;;8.35;62.51;101331.03;5061283;28;45482;-46
2022/12/19 04:02:30;;;;;;;;;12.75;11.75;;;;;8.34;62.50;101326.66;5061467;28;45311;-47
2022/12/19 04:05:01;;;;;;;;;14.25;14.25;;;;;8.40;62.51;101328.41;5061081;28;46075;-45
2022/12/19 04:07:26;;;;;;;;;17.00;14.50;;;;;8.41;62.67;101335.41;5061463;28;45197;-47
2022/12/19 04:09:54;;;;;;;;;14.75;12.25;;;;;8.41;62.55;101336.28;5061530;28;45237;-47
2022/12/19 04:12:30;;;;;;;;;17.50;13.00;;;;;8.41;62.64;101331.03;5061231;28;45512;-47
2022/12/19 04:14:56;;;;;;;;;11.25;11.25;;;;;8.44;62.76;101340.69;5061043;28;45913;-49
2022/12/19 04:17:34;;;;;;;;;12.75;12.00;;;;;8.44;62.63;101331.06;5061007;28;45391;-46
2022/12/19 04:20:13;;;;;;;;;15.00;14.00;;;;;8.47;62.56;101332.84;5061427;28;45276;-47
2022/12/19 04:22:41;;;;;;;;;12.25;11.50;;;;;8.51;62.51;101324.13;5060447;28;45355;-49
2022/12/19 04:25:11;;;;;;;;;10.00;9.00;;;;;8.52;62.44;101338.97;5066744;28;46098;-46
2022/12/19 04:27:42;;;;;;;;;13.00;12.00;;;;;8.50;62.78;101332.00;5060660;28;45322;-46
2022/12/19 04:30:11;;;;;;;;;12.50;11.00;;;;;8.51;62.64;101334.59;5060914;28;45370;-47
2022/12/19 04:32:39;;;;;;;;;14.00;12.00;;;;;8.53;62.72;101347.69;5061092;28;45290;-48
2022/12/19 04:35:04;;;;;;;;;12.75;12.00;;;;;8.56;62.80;101339.88;5060712;28;46293;-48
2022/12/19 04:37:30;;;;;;;;;15.00;12.25;;;;;8.55;62.59;101336.41;5076627;27;45301;-48
2022/12/19 04:39:55;;;;;;;;;15.25;12.75;;;;;8.58;62.49;101338.16;5060926;28;45244;-45
2022/12/19 04:42:21;;;;;;;;;16.00;12.75;;;;;8.61;62.77;101336.38;5060785;28;45386;-49
2022/12/19 04:44:46;;;;;;;;;13.00;12.25;;;;;8.61;62.60;101327.66;5060317;28;46459;-47
2022/12/19 04:47:12;;;;;;;;;11.00;10.50;;;;;8.67;62.56;101345.16;5076536;28;45266;-47
2022/12/19 04:49:37;;;;;;;;;13.25;10.00;;;;;8.64;62.55;101337.28;5060785;28;45307;-49
2022/12/19 04:52:02;;;;;;;;;12.50;10.25;;;;;8.71;62.56;101334.69;5060648;28;45379;-46
2022/12/19 04:54:27;;;;;;;;;10.00;9.50;;;;;8.73;62.53;101330.31;5060573;28;46421;-46
2022/12/19 04:56:53;;;;;;;;;10.25;10.25;;;;;8.76;62.43;101337.31;5060640;28;45247;-45
2022/12/19 04:59:18;;;;;;;;;16.50;12.00;;;;;8.75;62.39;101338.19;5060496;28;45476;-49
2022/12/19 05:01:43;;;;;;;;;13.00;11.75;;;;;8.75;62.72;101331.22;5060572;27;45350;-48
2022/12/19 05:04:09;;;;;;;;;13.25;11.00;;;;;8.77;62.65;101345.19;5060470;27;45323;-49
2022/12/19 05:06:34;;;;;;;;;17.75;11.00;;;;;8.82;62.42;101339.06;5060561;28;45192;-50
2022/12/19 05:09:00;;;;;;;;;10.00;8.25;;;;;8.81;62.75;101329.47;5060849;28;45288;-49
2022/12/19 05:11:25;;;;;;;;;11.00;11.00;;;;;8.83;62.57;101330.34;5060401;28;45146;-53
2022/12/19 05:13:50;;;;;;;;;12.00;10.50;;;;;8.86;62.48;101330.38;5060099;28;45445;-48
2022/12/19 05:16:16;;;;;;;;;11.75;11.75;;;;;8.86;62.67;101332.97;5060319;28;45318;-51
2022/12/19 05:18:42;;;;;;;;;13.00;12.75;;;;;8.87;62.71;101327.75;5060489;28;45434;-46
2022/12/19 05:21:07;;;;;;;;;12.00;12.00;;;;;8.87;62.51;101324.25;5060336;28;45476;-47
2022/12/19 05:23:33;;;;;;;;;14.25;10.00;;;;;8.90;62.66;101322.50;5060262;28;45433;-49
2022/12/19 05:26:01;;;;;;;;;12.25;11.50;;;;;8.92;62.59;101328.63;5059931;28;45287;-46
2022/12/19 05:28:27;;;;;;;;;10.50;10.50;;;;;8.92;62.51;101327.75;5060189;28;45406;-47
2022/12/19 05:31:05;;;;;;;;;13.50;10.25;;;;;8.94;62.51;101333.84;5076086;27;45482;-46
2022/12/19 05:33:30;;;;;;;;;12.50;10.75;;;;;8.96;62.36;101340.00;5059832;28;45227;-45
2022/12/19 05:35:55;;;;;;;;;13.00;12.00;;;;;8.99;62.52;101333.88;5060017;28;45281;-46
2022/12/19 05:38:21;;;;;;;;;12.00;10.75;;;;;9.02;62.44;101346.97;5060191;28;45262;-47
2022/12/19 05:40:46;;;;;;;;;14.00;10.25;;;;;9.01;62.51;101345.25;5060164;28;45173;-46
2022/12/19 05:43:11;;;;;;;;;12.50;11.00;;;;;9.02;62.77;101339.13;5059438;27;45332;-45
2022/12/19 05:45:38;;;;;;;;;11.50;10.75;;;;;9.04;62.67;101340.00;5060096;28;45224;-45
2022/12/19 05:48:04;;;;;;;;;12.50;12.50;;;;;9.04;62.69;101333.03;5060080;28;45265;-46
2022/12/19 05:50:29;;;;;;;;;12.00;12.00;;;;;9.07;62.50;101340.03;5060326;28;45521;-46
2022/12/19 05:52:54;;;;;;;;;12.75;11.00;;;;;9.08;62.65;101340.03;5059576;28;46320;-46
2022/12/19 05:55:20;;;;;;;;;11.25;11.25;;;;;9.05;62.46;101328.66;5059940;28;45338;-46
2022/12/19 05:57:45;;;;;;;;;8.50;8.50;;;;;9.09;62.37;101333.91;5059846;28;45386;-45
2022/12/19 06:00:11;;;;;;;;;13.00;11.00;;;;;9.01;62.66;101319.03;5059724;28;45367;-47
2022/12/19 06:02:36;;;;;;;;;12.00;11.75;;;;;9.10;62.65;101338.25;5059724;28;45943;-47
2022/12/19 06:05:02;;;;;;;;;12.50;12.00;;;;;9.14;62.56;101343.53;5060033;28;45299;-46
2022/12/19 06:07:29;;;;;;;;;15.00;13.50;;;;;9.13;62.64;101341.75;5059755;28;45245;-47
2022/12/19 06:09:54;;;;;;;;;12.50;11.75;;;;;9.15;62.38;101340.88;5059718;28;45326;-48
2022/12/19 06:12:19;;;;;;;;;12.75;11.00;;;;;9.17;62.54;101344.41;5059320;28;46111;-46
2022/12/19 06:14:45;;;;;;;;;11.00;10.00;;;;;9.16;62.77;101345.28;5059462;28;45146;-49
2022/12/19 06:17:10;;;;;;;;;10.25;8.50;;;;;9.18;62.50;101345.25;5059729;28;45172;-46
2022/12/19 06:19:35;;;;;;;;;14.75;12.00;;;;;9.19;62.25;101341.78;5059802;28;45246;-45
2022/12/19 06:22:01;;;;;;;;;12.00;10.50;;;;;9.17;62.58;101339.16;5059372;28;46128;-45
2022/12/19 06:24:26;;;;;;;;;11.00;10.50;;;;;9.19;62.14;101333.91;5070489;28;45258;-45
2022/12/19 06:26:51;;;;;;;;;10.50;9.00;;;;;9.22;62.69;101341.75;5053185;28;45426;-45
2022/12/19 06:29:17;;;;;;;;;13.50;13.50;;;;;9.22;62.58;101328.66;5059516;28;45199;-47
2022/12/19 06:31:43;;;;;;;;;9.25;8.50;;;;;9.22;62.44;101331.28;5059228;28;46136;-47
2022/12/19 06:34:09;;;;;;;;;10.25;9.00;;;;;9.25;62.60;101332.16;5059564;28;45395;-47
2022/12/19 06:36:35;;;;;;;;;10.50;9.00;;;;;9.25;62.50;101332.16;5059320;28;45510;-46
2022/12/19 06:39:00;;;;;;;;;10.75;10.00;;;;;9.25;62.55;101329.53;5059472;28;45311;-46
2022/12/19 06:44:13;;;;;;;;;10.75;9.25;;;;;9.28;62.34;101323.41;5059597;28;45331;-47
2022/12/19 06:46:39;;;;;;;;;9.50;7.25;;;;;9.26;62.78;101319.94;5062731;28;45323;-46
2022/12/19 06:49:05;;;;;;;;;10.75;10.75;;;;;9.26;62.85;101328.66;5062723;28;45483;-46
2022/12/19 06:51:30;;;;;;;;;10.25;8.25;;;;;9.29;62.63;101337.41;5062054;28;46011;-47
2022/12/19 06:53:56;;;;;;;;;13.25;11.00;;;;;9.29;62.42;101338.28;5063002;28;45250;-46
2022/12/19 06:56:22;;;;;;;;;7.50;7.00;;;;;9.27;62.61;101330.41;5078065;28;45228;-45
2022/12/19 06:58:47;;;;;;;;;9.00;7.75;;;;;9.32;62.67;101333.06;5062479;28;45173;-47
2022/12/19 07:01:35;;;;;;;;;7.00;7.00;;;;;9.31;62.60;101333.91;5062224;28;45252;-46
2022/12/19 07:04:01;;;;;;;;;11.25;9.50;;;;;9.32;62.69;101335.69;5062488;28;45391;-45
2022/12/19 07:06:27;;;;;;;;;10.25;8.75;;;;;9.30;62.69;101320.81;5062400;28;45319;-46
2022/12/19 07:08:52;;;;;;;;;8.00;7.25;;;;;9.33;62.47;101329.53;5078189;27;45545;-46
2022/12/19 07:11:17;;;;;;;;;11.25;10.50;;;;;9.31;62.65;101330.41;5062089;28;46156;-45
2022/12/19 07:13:42;;;;;;;;;8.50;7.25;;;;;9.32;62.70;101338.28;5062170;28;46640;-46
2022/12/19 07:16:08;;;;;;;;;10.50;9.00;;;;;9.32;62.80;101340.91;5062336;28;45332;-46
2022/12/19 07:18:36;;;;;;;;;9.25;7.25;;;;;9.33;62.78;101342.66;5062315;28;45310;-47
2022/12/19 07:21:03;;;;;;;;;9.50;9.50;;;;;9.34;62.79;101338.28;5061892;28;45259;-47
2022/12/19 07:23:29;;;;;;;;;12.75;10.00;;;;;9.34;62.57;101333.03;5062130;28;45204;-47
2022/12/19 07:25:54;;;;;;;;;9.25;9.25;;;;;9.30;62.54;101326.91;5061793;28;45390;-48
2022/12/19 07:28:20;;;;;;;;;9.00;7.00;;;;;9.31;62.68;101341.78;5061852;28;45370;-48
2022/12/19 07:30:45;;;;;;;;;11.50;10.25;;;;;9.32;62.69;101340.91;5061880;28;45446;-45
2022/12/19 07:33:10;;;;;;;;;8.25;8.25;;;;;9.35;62.67;101338.28;5062062;28;45391;-47
2022/12/19 07:35:36;;;;;;;;;9.00;7.00;;;;;9.33;62.64;101337.41;5062177;28;45479;-47
2022/12/19 07:38:02;;;;;;;;;8.00;8.00;;;;;9.33;62.70;101347.88;5062110;28;45279;-46
2022/12/19 07:40:31;;;;;;;;;7.75;6.50;;;;;9.35;62.48;101347.91;5061762;28;45349;-46
2022/12/19 07:43:05;;;;;;;;;9.00;8.00;;;;;9.33;62.55;101350.50;5061718;28;45529;-45
2022/12/19 07:45:31;;;;;;;;;11.00;10.25;;;;;9.33;62.68;101347.88;5048701;28;45249;-46
2022/12/19 07:48:01;;;;;;;;;14.25;11.25;;;;;9.36;62.56;101347.06;5061744;28;45286;-47
2022/12/19 07:50:28;;;;;;;;;9.25;9.25;;;;;9.37;62.64;101338.28;5077337;28;47068;-50
2022/12/19 07:52:53;;;;;;;;;12.00;10.75;;;;;9.37;62.67;101343.53;5061439;28;45458;-48
2022/12/19 07:55:18;;;;;;;;;10.25;9.75;;;;;9.38;62.71;101343.56;5061057;28;45442;-46
2022/12/19 07:57:44;;;;;;;;;10.50;7.75;;;;;9.38;62.41;101345.28;5060896;28;45492;-47
2022/12/19 08:00:10;;;;;;;;;7.75;6.75;;;;;9.38;62.46;101361.03;5061446;28;45318;-45
2022/12/19 08:02:35;;;;;;;;;12.50;10.50;;;;;9.38;62.68;101359.28;5061485;28;45186;-45
2022/12/19 08:05:01;;;;;;;;;12.00;9.50;;;;;9.37;62.72;101361.88;5061813;28;45563;-46
2022/12/19 08:07:27;;;;;;;;;8.50;8.00;;;;;9.40;62.64;101373.25;5061434;28;45608;-45
2022/12/19 08:09:52;;;;;;;;;8.75;8.75;;;;;9.40;62.37;101378.50;5076939;28;47124;-49
2022/12/19 08:12:17;;;;;;;;;11.00;8.00;;;;;9.42;62.54;101382.03;5061169;28;45249;-46
2022/12/19 08:14:43;;;;;;;;;10.00;7.00;;;;;9.44;62.47;101374.16;5061208;28;45255;-47
2022/12/19 08:17:08;;;;;;;;;9.50;8.00;;;;;9.43;62.54;101378.53;5061186;27;45499;-49
2022/12/19 08:19:34;;;;;;;;;5.25;5.00;;;;;9.43;62.58;101369.75;5061360;28;46046;-48
2022/12/19 08:21:59;;;;;;;;;12.00;9.00;;;;;9.44;62.75;101372.38;5061207;28;45200;-50
2022/12/19 08:24:24;;;;;;;;;12.00;9.25;;;;;9.45;62.61;101375.91;5061314;27;45288;-46
2022/12/19 08:26:50;;;;;;;;;9.50;8.50;;;;;9.47;62.61;101374.16;5060982;28;45280;-48
2022/12/19 08:29:15;;;;;;;;;10.25;7.50;;;;;9.47;62.58;101373.28;5059669;28;47059;-46
2022/12/19 08:31:40;;;;;;;;;11.75;10.75;;;;;9.51;62.62;101372.38;5061097;28;45346;-47
2022/12/19 08:34:06;;;;;;;;;11.00;9.00;;;;;9.51;62.53;101375.00;5061275;28;45327;-46
2022/12/19 08:36:31;;;;;;;;;12.50;10.50;;;;;9.51;62.21;101364.50;5060986;28;45237;-46
2022/12/19 08:38:56;;;;;;;;;12.75;10.25;;;;;9.53;62.52;101363.63;5061070;28;45367;-46
2022/12/19 08:41:22;;;;;;;;;9.00;8.75;;;;;9.58;62.55;101367.16;5060953;28;45364;-47
2022/12/19 08:43:52;;;;;;;;;12.00;10.00;;;;;9.59;62.55;101368.03;5060670;28;45653;-49
2022/12/19 08:46:19;;;;;;;;;7.75;7.75;;;;;9.59;62.28;101368.88;5060897;28;45445;-47
2022/12/19 08:48:44;;;;;;;;;8.00;7.25;;;;;9.62;62.52;101372.41;5076402;27;47098;-46
2022/12/19 08:51:12;;;;;;;;;8.25;7.75;;;;;9.60;62.64;101375.03;5060579;28;45367;-45
2022/12/19 08:53:40;;;;;;;;;8.25;8.25;;;;;9.63;62.47;101371.53;5060971;28;45290;-45
2022/12/19 08:56:25;;;;;;;;;11.50;9.50;;;;;9.59;62.72;101381.16;5060366;28;45526;-48
2022/12/19 08:58:51;;;;;;;;;10.00;8.75;;;;;9.58;62.48;101382.91;5059866;28;45350;-46
2022/12/19 09:01:19;;;;;;;;;10.00;8.75;;;;;9.64;62.53;101382.03;5060446;28;45217;-49
2022/12/19 09:03:45;;;;;;;;;10.00;8.75;;;;;9.66;62.64;101375.03;5060838;28;45246;-46
2022/12/19 09:06:12;;;;;;;;;11.50;9.00;;;;;9.69;62.39;101375.03;5060486;28;45349;-44
2022/12/19 09:08:39;;;;;;;;;8.00;7.25;;;;;9.73;62.49;101360.16;5059918;27;45518;-48
2022/12/19 09:11:15;;;;;;;;;10.25;9.50;;;;;9.75;62.34;101361.88;5058776;28;45343;-45
2022/12/19 09:13:41;;;;;;;;;9.50;7.75;;;;;9.73;62.49;101366.25;5060203;28;45220;-45
2022/12/19 09:16:16;;;;;;;;;13.00;9.25;;;;;9.79;62.18;101372.41;5060168;28;45223;-47
2022/12/19 09:18:49;;;;;;;;;8.25;7.50;;;;;9.81;62.19;101368.00;5060301;28;46356;-45
2022/12/19 09:21:20;;;;;;;;;8.50;8.50;;;;;9.85;62.28;101369.75;5060411;28;45177;-49
2022/12/19 09:23:50;;;;;;;;;10.00;8.75;;;;;9.84;62.41;101379.38;5060457;28;45641;-47
2022/12/19 09:26:16;;;;;;;;;14.75;13.25;;;;;9.88;62.24;101381.13;5058688;28;45288;-49
2022/12/19 09:28:41;;;;;;;;;10.25;8.75;;;;;9.89;62.08;101380.25;5059730;28;45253;-46
2022/12/19 09:31:11;;;;;;;;;10.25;10.25;;;;;9.93;62.40;101384.63;5060383;28;45257;-48
2022/12/19 09:33:37;;;;;;;;;9.50;8.00;;;;;9.96;62.36;101381.13;5060231;27;45370;-48
2022/12/19 09:36:03;;;;;;;;;9.75;7.00;;;;;10.02;62.35;101380.25;5058912;28;45323;-49
2022/12/19 09:38:31;;;;;;;;;8.75;7.50;;;;;10.05;62.11;101381.13;5058624;28;47190;-47
2022/12/19 09:40:56;;;;;;;;;10.75;8.00;;;;;10.08;62.17;101394.22;5060108;28;45251;-46
2022/12/19 09:43:34;;;;;;;;;13.50;13.25;;;;;10.15;62.02;101388.97;5059725;28;45351;-49
2022/12/19 09:45:59;;;;;;;;;12.25;11.75;;;;;10.17;62.10;101390.69;5060118;28;45330;-44
2022/12/19 09:48:24;;;;;;;;;8.75;7.75;;;;;10.22;61.97;101396.81;5075326;28;48255;-47
2022/12/19 09:51:07;;;;;;;;;10.75;9.50;;;;;10.27;62.04;101403.84;5059994;28;45365;-49
2022/12/19 09:53:41;;;;;;;;;17.00;14.50;;;;;10.33;61.97;101414.34;5059836;28;45307;-49
2022/12/19 09:56:13;;;;;;;;;13.25;13.25;;;;;10.37;61.88;101413.47;5059684;28;45422;-49
2022/12/19 09:58:48;;;;;;;;;13.75;9.00;;;;;10.37;62.06;101414.34;5059646;28;46412;-44
2022/12/19 10:01:21;;;;;;;;;15.25;15.00;;;;;10.40;61.93;101405.56;5059537;28;45332;-47
2022/12/19 10:03:58;;;;;;;;;12.75;10.00;;;;;10.43;61.88;101409.94;5059922;28;45308;-49
2022/12/19 10:06:24;;;;;;;;;10.25;8.25;;;;;10.40;62.02;101401.22;5075179;28;45474;-45
2022/12/19 10:08:51;;;;;;;;;8.50;8.50;;;;;10.46;61.85;101399.44;5075220;28;48388;-46
2022/12/19 10:11:16;;;;;;;;;11.00;10.00;;;;;10.52;61.66;101404.66;5058099;28;46059;-44
2022/12/19 10:14:07;;;;;;;;;9.00;6.25;;;;;10.48;61.90;101397.69;5059421;28;45214;-47
2022/12/19 10:17:02;;;;;;;;;8.50;7.00;;;;;10.51;62.03;101392.41;5075246;28;45327;-47
2022/12/19 10:19:45;;;;;;;;;6.25;5.00;;;;;10.53;61.39;101390.66;5060503;28;46771;-47
2022/12/19 10:22:28;;;;;;;;;14.25;9.75;;;;;10.52;61.84;101386.28;5062958;28;45418;-45
2022/12/19 10:25:32;;;;;;;;;12.00;9.00;;;;;10.57;61.95;101387.13;5063214;28;45289;-49
2022/12/19 10:28:10;;;;;;;;;14.00;10.00;;;;;10.60;61.83;101384.47;5049223;28;45261;-45
2022/12/19 10:30:49;;;;;;;;;12.00;12.00;;;;;10.61;61.71;101377.47;5062635;28;46018;-45
2022/12/19 10:33:21;;;;;;;;;9.50;9.00;;;;;10.66;61.69;101381.81;5062875;28;45423;-45
2022/12/19 10:35:53;;;;;;;;;9.00;9.00;;;;;10.68;61.78;101384.47;5063003;28;45330;-46
2022/12/19 10:38:29;;;;;;;;;11.00;9.00;;;;;10.71;61.83;101379.19;5062790;28;45455;-45
2022/12/19 10:41:07;;;;;;;;;8.50;7.00;;;;;10.75;61.68;101378.28;5062844;28;46322;-46
2022/12/19 10:43:56;;;;;;;;;7.00;7.00;;;;;10.78;61.68;101377.38;5062325;28;45326;-48
2022/12/19 10:46:32;;;;;;;;;8.00;7.50;;;;;10.79;61.82;101373.88;5062697;28;45283;-45
2022/12/19 10:48:58;;;;;;;;;7.00;6.75;;;;;10.81;61.71;101369.50;5062928;28;45326;-47
2022/12/19 10:51:27;;;;;;;;;8.00;7.00;;;;;10.84;61.73;101364.22;5062128;28;47004;-46
2022/12/19 10:53:55;;;;;;;;;5.75;5.75;;;;;10.87;61.59;101361.59;5062815;28;45272;-47
2022/12/19 10:56:26;;;;;;;;;7.00;7.00;;;;;10.93;61.68;101364.19;5062414;28;45449;-47
2022/12/19 10:58:56;;;;;;;;;8.00;6.50;;;;;10.97;61.52;101360.66;5062405;28;45341;-45
2022/12/19 11:01:28;;;;;;;;;10.00;8.50;;;;;11.01;61.63;101362.38;5062186;28;46356;-44
2022/12/19 11:04:24;;;;;;;;;7.00;6.25;;;;;11.02;61.56;101366.75;5062378;28;45289;-44
2022/12/19 11:07:02;;;;;;;;;7.00;7.00;;;;;11.09;61.78;101358.81;5062689;28;45327;-46
2022/12/19 11:09:29;;;;;;;;;7.75;7.75;;;;;11.11;61.51;101357.06;5062156;28;45157;-46
2022/12/19 11:12:11;;;;;;;;;12.00;9.25;;;;;11.21;61.44;101367.50;5062127;28;46137;-47
2022/12/19 11:14:40;;;;;;;;;7.25;7.00;;;;;11.19;61.49;101358.75;5061937;28;45441;-45
2022/12/19 11:17:23;;;;;;;;;6.75;6.75;;;;;11.19;61.50;101355.25;5062329;27;45403;-44
2022/12/19 11:19:48;;;;;;;;;9.00;7.00;;;;;11.26;61.08;101351.69;5062216;28;45438;-48
2022/12/19 11:22:18;;;;;;;;;8.00;8.00;;;;;11.30;61.31;101350.78;5062049;28;45257;-48
2022/12/19 11:24:49;;;;;;;;;8.00;8.00;;;;;11.32;61.32;101340.22;5062170;28;45420;-46
2022/12/19 11:27:40;;;;;;;;;10.25;9.00;;;;;11.29;61.52;101337.63;5062062;28;45286;-47
2022/12/19 11:30:14;;;;;;;;;9.75;9.00;;;;;11.30;61.30;101335.00;5061400;28;45461;-46
2022/12/19 11:32:44;;;;;;;;;8.25;8.25;;;;;11.33;61.29;101342.88;5077517;28;47197;-45
2022/12/19 11:35:20;;;;;;;;;10.75;8.25;;;;;11.35;61.20;101337.59;5061747;28;45396;-43
2022/12/19 11:37:51;;;;;;;;;9.00;7.75;;;;;11.37;61.11;101330.53;5062059;28;45410;-44
2022/12/19 11:40:48;;;;;;;;;7.75;7.75;;;;;11.32;61.34;101333.22;5061807;28;45394;-45